sensor_id;sensor_type;location;lat;lon;timestamp;pressure;altitude;pressure_sealevel;temperature;humidity
49451;BME280;35336;48.400;10.886;2023-03-20T00:00:03;96434.75;;;8.96;84.77
49451;BME280;35336;48.400;10.886;2023-03-20T00:00:33;96435.38;;;8.98;84.77
49451;BME280;35336;48.400;10.886;2023-03-20T00:00:51;96434.56;;;8.98;84.78
49451;BME280;35336;48.400;10.886;2023-03-20T00:01:16;96434.13;;;8.94;84.84
49451;BME280;35336;48.400;10.886;2023-03-20T00:01:32;96436.22;;;8.99;84.77
49451;BME280;35336;48.400;10.886;2023-03-20T00:01:48;96438.03;;;8.98;84.94
49451;BME280;35336;48.400;10.886;2023-03-20T00:02:05;96424.69;;;8.92;84.61
49451;BME280;35336;48.400;10.886;2023-03-20T00:02:22;96416.41;;;8.86;84.47
49451;BME280;35336;48.400;10.886;2023-03-20T00:02:38;96422.19;;;8.90;84.86
49451;BME280;35336;48.400;10.886;2023-03-20T00:02:54;96442.56;;;8.98;84.56
49451;BME280;35336;48.400;10.886;2023-03-20T00:03:10;96427.34;;;8.92;84.83
49451;BME280;35336;48.400;10.886;2023-03-20T00:03:26;96434.56;;;8.98;84.68
49451;BME280;35336;48.400;10.886;2023-03-20T00:03:41;96432.91;;;8.97;84.96
49451;BME280;35336;48.400;10.886;2023-03-20T00:03:56;96429.34;;;8.89;84.97
49451;BME280;35336;48.400;10.886;2023-03-20T00:04:12;96445.22;;;8.98;84.54
49451;BME280;35336;48.400;10.886;2023-03-20T00:04:27;96428.69;;;8.87;84.97
49451;BME280;35336;48.400;10.886;2023-03-20T00:04:43;96421.38;;;8.89;85.03
49451;BME280;35336;48.400;10.886;2023-03-20T00:04:58;96440.72;;;8.98;84.66
49451;BME280;35336;48.400;10.886;2023-03-20T00:05:18;96427.34;;;8.92;84.67
49451;BME280;35336;48.400;10.886;2023-03-20T00:05:34;96424.69;;;8.92;85.05
49451;BME280;35336;48.400;10.886;2023-03-20T00:05:49;96430.16;;;8.90;84.65
49451;BME280;35336;48.400;10.886;2023-03-20T00:06:05;96418.91;;;8.88;84.79
49451;BME280;35336;48.400;10.886;2023-03-20T00:06:25;96436.41;;;8.97;84.96
49451;BME280;35336;48.400;10.886;2023-03-20T00:06:41;96435.84;;;9.02;84.63
49451;BME280;35336;48.400;10.886;2023-03-20T00:06:56;96434.94;;;8.95;84.74
49451;BME280;35336;48.400;10.886;2023-03-20T00:07:11;96438.50;;;9.02;84.58
49451;BME280;35336;48.400;10.886;2023-03-20T00:07:27;96444.47;;;9.04;84.37
49451;BME280;35336;48.400;10.886;2023-03-20T00:07:42;96427.06;;;9.01;84.56
49451;BME280;35336;48.400;10.886;2023-03-20T00:07:57;96429.53;;;9.03;84.32
49451;BME280;35336;48.400;10.886;2023-03-20T00:08:13;96436.75;;;9.09;84.32
49451;BME280;35336;48.400;10.886;2023-03-20T00:08:28;96433.84;;;9.04;83.96
49451;BME280;35336;48.400;10.886;2023-03-20T00:08:45;96419.81;;;8.95;84.08
49451;BME280;35336;48.400;10.886;2023-03-20T00:09:00;96444.94;;;9.08;84.22
49451;BME280;35336;48.400;10.886;2023-03-20T00:09:16;96427.16;;;8.93;84.02
49451;BME280;35336;48.400;10.886;2023-03-20T00:09:31;96440.81;;;9.05;84.48
49451;BME280;35336;48.400;10.886;2023-03-20T00:09:46;96422.47;;;8.95;84.46
49451;BME280;35336;48.400;10.886;2023-03-20T00:10:02;96425.94;;;8.96;84.27
49451;BME280;35336;48.400;10.886;2023-03-20T00:10:18;96432.28;;;8.95;84.07
49451;BME280;35336;48.400;10.886;2023-03-20T00:10:41;96447.31;;;9.02;84.60
49451;BME280;35336;48.400;10.886;2023-03-20T00:10:57;96421.56;;;8.88;84.42
49451;BME280;35336;48.400;10.886;2023-03-20T00:11:46;96441.34;;;9.00;84.39
49451;BME280;35336;48.400;10.886;2023-03-20T00:12:02;96443.19;;;9.00;84.77
49451;BME280;35336;48.400;10.886;2023-03-20T00:12:22;96441.56;;;8.99;84.55
49451;BME280;35336;48.400;10.886;2023-03-20T00:12:39;96450.16;;;9.01;84.53
49451;BME280;35336;48.400;10.886;2023-03-20T00:12:54;96430.00;;;8.92;84.33
49451;BME280;35336;48.400;10.886;2023-03-20T00:13:20;96407.72;;;8.78;84.33
49451;BME280;35336;48.400;10.886;2023-03-20T00:13:36;96434.28;;;8.93;84.34
49451;BME280;35336;48.400;10.886;2023-03-20T00:13:52;96430.53;;;8.87;84.51
49451;BME280;35336;48.400;10.886;2023-03-20T00:14:09;96445.38;;;8.96;84.51
49451;BME280;35336;48.400;10.886;2023-03-20T00:14:26;96446.22;;;8.97;84.66
49451;BME280;35336;48.400;10.886;2023-03-20T00:14:42;96421.19;;;8.76;84.57
49451;BME280;35336;48.400;10.886;2023-03-20T00:14:59;96442.25;;;8.93;84.31
49451;BME280;35336;48.400;10.886;2023-03-20T00:15:30;96449.88;;;8.96;84.32
49451;BME280;35336;48.400;10.886;2023-03-20T00:15:46;96434.66;;;8.89;84.18
49451;BME280;35336;48.400;10.886;2023-03-20T00:16:01;96451.72;;;8.95;84.44
49451;BME280;35336;48.400;10.886;2023-03-20T00:16:16;96449.06;;;8.95;84.29
49451;BME280;35336;48.400;10.886;2023-03-20T00:16:35;96433.00;;;8.88;84.17
49451;BME280;35336;48.400;10.886;2023-03-20T00:16:51;96447.22;;;8.96;84.41
49451;BME280;35336;48.400;10.886;2023-03-20T00:17:14;96445.56;;;8.95;84.62
49451;BME280;35336;48.400;10.886;2023-03-20T00:17:31;96426.59;;;8.83;84.54
49451;BME280;35336;48.400;10.886;2023-03-20T00:17:46;96410.56;;;8.76;84.30
49451;BME280;35336;48.400;10.886;2023-03-20T00:18:01;96425.78;;;8.82;84.30
49451;BME280;35336;48.400;10.886;2023-03-20T00:18:20;96444.75;;;8.94;84.20
49451;BME280;35336;48.400;10.886;2023-03-20T00:18:35;96453.34;;;8.96;84.56
49451;BME280;35336;48.400;10.886;2023-03-20T00:18:50;96435.31;;;8.92;84.04
49451;BME280;35336;48.400;10.886;2023-03-20T00:19:15;96423.75;;;8.84;84.19
49451;BME280;35336;48.400;10.886;2023-03-20T00:19:31;96444.09;;;8.92;84.27
49451;BME280;35336;48.400;10.886;2023-03-20T00:19:46;96433.66;;;8.90;84.02
49451;BME280;35336;48.400;10.886;2023-03-20T00:20:02;96446.47;;;9.02;84.11
49451;BME280;35336;48.400;10.886;2023-03-20T00:20:18;96449.16;;;9.02;84.04
49451;BME280;35336;48.400;10.886;2023-03-20T00:20:33;96451.16;;;9.00;84.42
49451;BME280;35336;48.400;10.886;2023-03-20T00:20:49;96441.09;;;8.95;84.37
49451;BME280;35336;48.400;10.886;2023-03-20T00:21:07;96441.91;;;8.96;84.30
49451;BME280;35336;48.400;10.886;2023-03-20T00:21:24;96449.16;;;9.02;84.09
49451;BME280;35336;48.400;10.886;2023-03-20T00:21:40;96440.91;;;8.97;84.26
49451;BME280;35336;48.400;10.886;2023-03-20T00:21:56;96450.59;;;9.04;84.16
49451;BME280;35336;48.400;10.886;2023-03-20T00:22:11;96443.81;;;9.02;83.84
49451;BME280;35336;48.400;10.886;2023-03-20T00:22:27;96447.13;;;9.04;83.77
49451;BME280;35336;48.400;10.886;2023-03-20T00:22:42;96432.28;;;8.95;84.02
49451;BME280;35336;48.400;10.886;2023-03-20T00:22:57;96451.59;;;9.03;84.10
49451;BME280;35336;48.400;10.886;2023-03-20T00:23:13;96438.44;;;8.95;84.08
49451;BME280;35336;48.400;10.886;2023-03-20T00:23:28;96440.25;;;8.95;83.64
49451;BME280;35336;48.400;10.886;2023-03-20T00:23:44;96444.47;;;9.04;84.10
49451;BME280;35336;48.400;10.886;2023-03-20T00:23:59;96448.13;;;9.03;84.03
49451;BME280;35336;48.400;10.886;2023-03-20T00:24:15;96432.47;;;8.93;84.07
49451;BME280;35336;48.400;10.886;2023-03-20T00:24:31;96456.13;;;9.03;83.97
49451;BME280;35336;48.400;10.886;2023-03-20T00:24:46;96439.44;;;8.94;83.91
49451;BME280;35336;48.400;10.886;2023-03-20T00:25:01;96448.94;;;9.03;83.85
49451;BME280;35336;48.400;10.886;2023-03-20T00:25:19;96434.75;;;8.96;83.83
49451;BME280;35336;48.400;10.886;2023-03-20T00:25:36;96445.66;;;9.01;83.92
49451;BME280;35336;48.400;10.886;2023-03-20T00:25:52;96438.25;;;8.97;83.67
49451;BME280;35336;48.400;10.886;2023-03-20T00:26:12;96441.34;;;9.00;83.66
49451;BME280;35336;48.400;10.886;2023-03-20T00:26:33;96436.78;;;8.94;83.59
49451;BME280;35336;48.400;10.886;2023-03-20T00:26:51;96435.94;;;8.94;83.92
49451;BME280;35336;48.400;10.886;2023-03-20T00:27:09;96431.00;;;8.90;84.03
49451;BME280;35336;48.400;10.886;2023-03-20T00:27:27;96423.56;;;8.86;83.70
49451;BME280;35336;48.400;10.886;2023-03-20T00:27:44;96449.16;;;9.02;83.97
49451;BME280;35336;48.400;10.886;2023-03-20T00:27:59;96451.81;;;9.02;83.96
49451;BME280;35336;48.400;10.886;2023-03-20T00:28:37;96450.81;;;9.03;83.75
49451;BME280;35336;48.400;10.886;2023-03-20T00:28:53;96437.97;;;8.92;83.68
49451;BME280;35336;48.400;10.886;2023-03-20T00:29:19;96418.16;;;8.79;83.72
49451;BME280;35336;48.400;10.886;2023-03-20T00:29:35;96437.41;;;8.96;83.88
49451;BME280;35336;48.400;10.886;2023-03-20T00:29:50;96453.47;;;9.03;83.82
49451;BME280;35336;48.400;10.886;2023-03-20T00:30:19;96433.66;;;8.90;83.78
49451;BME280;35336;48.400;10.886;2023-03-20T00:30:35;96451.81;;;9.02;83.89
49451;BME280;35336;48.400;10.886;2023-03-20T00:30:50;96435.78;;;8.95;84.03
49451;BME280;35336;48.400;10.886;2023-03-20T00:31:39;96418.16;;;8.79;84.03
49451;BME280;35336;48.400;10.886;2023-03-20T00:31:55;96437.97;;;8.92;84.00
49451;BME280;35336;48.400;10.886;2023-03-20T00:32:11;96433.47;;;8.92;83.91
49451;BME280;35336;48.400;10.886;2023-03-20T00:32:27;96447.69;;;8.99;83.77
49451;BME280;35336;48.400;10.886;2023-03-20T00:32:43;96435.78;;;8.95;83.73
49451;BME280;35336;48.400;10.886;2023-03-20T00:32:58;96440.63;;;8.92;83.75
49451;BME280;35336;48.400;10.886;2023-03-20T00:33:13;96427.22;;;8.85;83.78
49451;BME280;35336;48.400;10.886;2023-03-20T00:33:29;96449.78;;;9.04;83.92
49451;BME280;35336;48.400;10.886;2023-03-20T00:33:44;96445.94;;;9.06;83.57
49451;BME280;35336;48.400;10.886;2023-03-20T00:34:02;96452.06;;;9.07;83.78
49451;BME280;35336;48.400;10.886;2023-03-20T00:34:20;96444.38;;;8.97;83.61
49451;BME280;35336;48.400;10.886;2023-03-20T00:34:36;96434.75;;;8.96;83.65
49451;BME280;35336;48.400;10.886;2023-03-20T00:34:51;96449.78;;;9.04;83.44
49451;BME280;35336;48.400;10.886;2023-03-20T00:35:35;96450.16;;;9.01;83.63
49451;BME280;35336;48.400;10.886;2023-03-20T00:35:51;96452.25;;;9.05;83.64
49451;BME280;35336;48.400;10.886;2023-03-20T00:36:08;96454.72;;;9.07;83.74
49451;BME280;35336;48.400;10.886;2023-03-20T00:36:23;96445.13;;;9.06;83.53
49451;BME280;35336;48.400;10.886;2023-03-20T00:36:39;96438.88;;;8.99;83.24
49451;BME280;35336;48.400;10.886;2023-03-20T00:36:55;96436.41;;;8.97;83.64
49451;BME280;35336;48.400;10.886;2023-03-20T00:37:11;96449.78;;;9.04;83.58
49451;BME280;35336;48.400;10.886;2023-03-20T00:37:26;96439.25;;;8.96;83.94
49451;BME280;35336;48.400;10.886;2023-03-20T00:37:41;96451.34;;;8.98;83.86
49451;BME280;35336;48.400;10.886;2023-03-20T00:37:57;96451.34;;;8.98;83.72
49451;BME280;35336;48.400;10.886;2023-03-20T00:38:12;96422.47;;;8.80;83.85
49451;BME280;35336;48.400;10.886;2023-03-20T00:38:27;96454.47;;;9.02;83.60
49451;BME280;35336;48.400;10.886;2023-03-20T00:38:42;96446.41;;;8.95;83.99
49451;BME280;35336;48.400;10.886;2023-03-20T00:38:58;96438.97;;;8.90;84.11
49451;BME280;35336;48.400;10.886;2023-03-20T00:39:14;96450.53;;;8.98;83.75
49451;BME280;35336;48.400;10.886;2023-03-20T00:39:29;96448.69;;;8.98;84.04
49451;BME280;35336;48.400;10.886;2023-03-20T00:39:44;96453.81;;;9.00;83.72
49451;BME280;35336;48.400;10.886;2023-03-20T00:39:59;96443.56;;;8.97;83.98
49451;BME280;35336;48.400;10.886;2023-03-20T00:40:15;96438.34;;;8.88;84.01
49451;BME280;35336;48.400;10.886;2023-03-20T00:40:30;96453.00;;;8.99;84.08
49451;BME280;35336;48.400;10.886;2023-03-20T00:40:46;96457.50;;;8.99;83.77
49451;BME280;35336;48.400;10.886;2023-03-20T00:41:01;96434.41;;;8.84;83.87
49451;BME280;35336;48.400;10.886;2023-03-20T00:41:22;96462.38;;;8.95;84.07
49451;BME280;35336;48.400;10.886;2023-03-20T00:41:41;96453.75;;;8.93;84.09
49451;BME280;35336;48.400;10.886;2023-03-20T00:41:59;96429.78;;;8.78;84.19
49451;BME280;35336;48.400;10.886;2023-03-20T00:42:19;96434.22;;;8.86;84.61
49451;BME280;35336;48.400;10.886;2023-03-20T00:42:35;96451.53;;;8.97;84.21
49451;BME280;35336;48.400;10.886;2023-03-20T00:43:02;96437.69;;;8.86;84.42
49451;BME280;35336;48.400;10.886;2023-03-20T00:43:18;96455.84;;;8.98;84.09
49451;BME280;35336;48.400;10.886;2023-03-20T00:43:33;96452.19;;;8.99;84.32
49451;BME280;35336;48.400;10.886;2023-03-20T00:43:51;96456.66;;;8.98;84.37
49451;BME280;35336;48.400;10.886;2023-03-20T00:44:58;96459.06;;;8.93;84.22
49451;BME280;35336;48.400;10.886;2023-03-20T00:45:14;96413.75;;;8.71;84.62
49451;BME280;35336;48.400;10.886;2023-03-20T00:45:33;96456.94;;;8.88;84.50
49451;BME280;35336;48.400;10.886;2023-03-20T00:45:48;96460.72;;;8.94;84.50
49451;BME280;35336;48.400;10.886;2023-03-20T00:46:10;96438.88;;;8.84;84.37
49451;BME280;35336;48.400;10.886;2023-03-20T00:46:27;96460.72;;;8.94;84.73
49451;BME280;35336;48.400;10.886;2023-03-20T00:46:46;96443.19;;;8.85;84.83
49451;BME280;35336;48.400;10.886;2023-03-20T00:47:10;96461.34;;;8.96;84.69
49451;BME280;35336;48.400;10.886;2023-03-20T00:47:27;96459.50;;;8.97;84.26
49451;BME280;35336;48.400;10.886;2023-03-20T00:47:43;96450.88;;;8.95;84.43
49451;BME280;35336;48.400;10.886;2023-03-20T00:48:00;96443.00;;;8.86;84.66
49451;BME280;35336;48.400;10.886;2023-03-20T00:48:15;96443.84;;;8.87;84.39
49451;BME280;35336;48.400;10.886;2023-03-20T00:48:31;96464.66;;;8.98;84.76
49451;BME280;35336;48.400;10.886;2023-03-20T00:48:47;96454.00;;;8.98;84.53
49451;BME280;35336;48.400;10.886;2023-03-20T00:49:02;96453.19;;;8.98;84.17
49451;BME280;35336;48.400;10.886;2023-03-20T00:49:32;96454.19;;;8.97;84.14
49451;BME280;35336;48.400;10.886;2023-03-20T00:49:49;96442.66;;;8.89;84.52
49451;BME280;35336;48.400;10.886;2023-03-20T00:50:13;96456.66;;;8.98;84.23
49451;BME280;35336;48.400;10.886;2023-03-20T00:50:29;96445.13;;;8.91;84.51
49451;BME280;35336;48.400;10.886;2023-03-20T00:50:45;96432.75;;;8.83;84.23
49451;BME280;35336;48.400;10.886;2023-03-20T00:51:00;96454.19;;;8.97;84.48
49451;BME280;35336;48.400;10.886;2023-03-20T00:51:16;96451.16;;;9.00;84.42
49451;BME280;35336;48.400;10.886;2023-03-20T00:51:32;96445.56;;;8.95;84.08
49451;BME280;35336;48.400;10.886;2023-03-20T00:51:47;96451.44;;;9.05;84.29
49451;BME280;35336;48.400;10.886;2023-03-20T00:52:05;96449.34;;;9.00;84.06
49451;BME280;35336;48.400;10.886;2023-03-20T00:52:21;96447.31;;;9.02;84.09
49451;BME280;35336;48.400;10.886;2023-03-20T00:52:37;96439.97;;;9.04;83.55
49451;BME280;35336;48.400;10.886;2023-03-20T00:52:52;96448.41;;;9.08;83.57
49451;BME280;35336;48.400;10.886;2023-03-20T00:53:10;96441.56;;;8.99;83.37
49451;BME280;35336;48.400;10.886;2023-03-20T00:53:25;96442.81;;;9.03;83.49
49451;BME280;35336;48.400;10.886;2023-03-20T00:53:40;96451.44;;;9.05;84.01
49451;BME280;35336;48.400;10.886;2023-03-20T00:53:56;96439.91;;;8.98;83.97
49451;BME280;35336;48.400;10.886;2023-03-20T00:54:13;96458.88;;;9.10;83.81
49451;BME280;35336;48.400;10.886;2023-03-20T00:54:30;96426.69;;;8.89;83.54
49451;BME280;35336;48.400;10.886;2023-03-20T00:54:45;96447.69;;;8.99;83.90
49451;BME280;35336;48.400;10.886;2023-03-20T00:55:00;96454.28;;;9.03;83.67
49451;BME280;35336;48.400;10.886;2023-03-20T00:55:17;96435.31;;;8.92;83.80
49451;BME280;35336;48.400;10.886;2023-03-20T00:55:33;96447.56;;;8.93;83.99
49451;BME280;35336;48.400;10.886;2023-03-20T00:55:48;96456.47;;;9.00;84.05
49451;BME280;35336;48.400;10.886;2023-03-20T00:56:04;96454.00;;;8.98;84.33
49451;BME280;35336;48.400;10.886;2023-03-20T00:56:32;96434.09;;;8.79;84.09
49451;BME280;35336;48.400;10.886;2023-03-20T00:56:58;96461.53;;;8.95;84.58
49451;BME280;35336;48.400;10.886;2023-03-20T00:57:26;96463.19;;;8.96;84.42
49451;BME280;35336;48.400;10.886;2023-03-20T00:58:01;96428.97;;;8.78;84.62
49451;BME280;35336;48.400;10.886;2023-03-20T00:58:17;96441.53;;;8.84;84.27
49451;BME280;35336;48.400;10.886;2023-03-20T00:58:33;96457.41;;;8.92;84.31
49451;BME280;35336;48.400;10.886;2023-03-20T00:58:48;96465.38;;;8.92;84.61
49451;BME280;35336;48.400;10.886;2023-03-20T00:59:03;96425.22;;;8.72;84.64
49451;BME280;35336;48.400;10.886;2023-03-20T00:59:21;96455.75;;;8.91;84.62
49451;BME280;35336;48.400;10.886;2023-03-20T01:00:52;96458.94;;;8.86;84.71
49451;BME280;35336;48.400;10.886;2023-03-20T01:01:08;96465.91;;;8.87;84.77
49451;BME280;35336;48.400;10.886;2023-03-20T01:01:23;96460.59;;;8.87;85.06
49451;BME280;35336;48.400;10.886;2023-03-20T01:01:39;96459.78;;;8.87;85.19
49451;BME280;35336;48.400;10.886;2023-03-20T01:01:54;96450.34;;;8.84;84.95
49451;BME280;35336;48.400;10.886;2023-03-20T01:02:10;96453.00;;;8.84;85.07
49451;BME280;35336;48.400;10.886;2023-03-20T01:02:27;96460.59;;;8.87;85.11
49451;BME280;35336;48.400;10.886;2023-03-20T01:02:43;96418.97;;;8.65;85.13
49451;BME280;35336;48.400;10.886;2023-03-20T01:02:59;96451.06;;;8.78;84.74
49451;BME280;35336;48.400;10.886;2023-03-20T01:03:24;96449.69;;;8.82;84.81
49451;BME280;35336;48.400;10.886;2023-03-20T01:03:40;96446.59;;;8.79;84.92
49451;BME280;35336;48.400;10.886;2023-03-20T01:03:55;96444.47;;;8.74;84.75
49451;BME280;35336;48.400;10.886;2023-03-20T01:04:12;96454.00;;;8.83;85.09
49451;BME280;35336;48.400;10.886;2023-03-20T01:04:35;96455.66;;;8.84;85.16
49451;BME280;35336;48.400;10.886;2023-03-20T01:04:51;96443.47;;;8.75;84.90
49451;BME280;35336;48.400;10.886;2023-03-20T01:05:06;96435.28;;;8.77;84.79
49451;BME280;35336;48.400;10.886;2023-03-20T01:05:22;96460.59;;;8.87;85.10
49451;BME280;35336;48.400;10.886;2023-03-20T01:05:38;96442.06;;;8.79;85.10
49451;BME280;35336;48.400;10.886;2023-03-20T01:05:53;96443.53;;;8.82;84.99
49451;BME280;35336;48.400;10.886;2023-03-20T01:06:11;96447.03;;;8.82;84.66
49451;BME280;35336;48.400;10.886;2023-03-20T01:06:27;96450.16;;;8.86;84.93
49451;BME280;35336;48.400;10.886;2023-03-20T01:06:43;96446.38;;;8.80;84.94
49451;BME280;35336;48.400;10.886;2023-03-20T01:06:58;96450.34;;;8.84;84.70
49451;BME280;35336;48.400;10.886;2023-03-20T01:07:14;96444.94;;;8.78;85.03
49451;BME280;35336;48.400;10.886;2023-03-20T01:07:29;96448.69;;;8.83;84.98
49451;BME280;35336;48.400;10.886;2023-03-20T01:07:45;96452.34;;;8.82;84.82
49451;BME280;35336;48.400;10.886;2023-03-20T01:08:01;96436.69;;;8.72;85.27
49451;BME280;35336;48.400;10.886;2023-03-20T01:08:24;96434.03;;;8.72;84.93
49451;BME280;35336;48.400;10.886;2023-03-20T01:08:39;96436.28;;;8.76;84.88
49451;BME280;35336;48.400;10.886;2023-03-20T01:08:55;96452.34;;;8.82;85.17
49451;BME280;35336;48.400;10.886;2023-03-20T01:09:10;96440.81;;;8.75;85.06
49451;BME280;35336;48.400;10.886;2023-03-20T01:09:26;96445.75;;;8.78;85.24
49451;BME280;35336;48.400;10.886;2023-03-20T01:09:41;96432.19;;;8.73;85.16
49451;BME280;35336;48.400;10.886;2023-03-20T01:09:56;96446.31;;;8.88;84.80
49451;BME280;35336;48.400;10.886;2023-03-20T01:10:12;96443.72;;;8.80;84.76
49451;BME280;35336;48.400;10.886;2023-03-20T01:10:29;96441.72;;;8.82;84.99
49451;BME280;35336;48.400;10.886;2023-03-20T01:10:48;96440.72;;;8.83;84.82
49451;BME280;35336;48.400;10.886;2023-03-20T01:11:05;96447.78;;;8.91;84.73
49451;BME280;35336;48.400;10.886;2023-03-20T01:11:22;96454.75;;;8.92;84.45
49451;BME280;35336;48.400;10.886;2023-03-20T01:11:38;96449.97;;;8.87;84.75
49451;BME280;35336;48.400;10.886;2023-03-20T01:11:54;96449.06;;;8.95;84.66
49451;BME280;35336;48.400;10.886;2023-03-20T01:12:11;96448.88;;;8.97;84.33
49451;BME280;35336;48.400;10.886;2023-03-20T01:12:27;96432.81;;;8.90;84.11
49451;BME280;35336;48.400;10.886;2023-03-20T01:12:43;96451.34;;;8.98;84.04
49451;BME280;35336;48.400;10.886;2023-03-20T01:13:00;96427.69;;;8.88;84.15
49451;BME280;35336;48.400;10.886;2023-03-20T01:13:19;96434.22;;;8.86;84.17
49451;BME280;35336;48.400;10.886;2023-03-20T01:13:37;96448.03;;;8.96;84.20
49451;BME280;35336;48.400;10.886;2023-03-20T01:13:52;96447.41;;;8.94;84.12
49451;BME280;35336;48.400;10.886;2023-03-20T01:14:12;96445.75;;;8.93;84.17
49451;BME280;35336;48.400;10.886;2023-03-20T01:14:29;96434.00;;;8.87;84.35
49451;BME280;35336;48.400;10.886;2023-03-20T01:14:45;96438.97;;;8.90;84.04
49451;BME280;35336;48.400;10.886;2023-03-20T01:15:15;96429.91;;;8.85;83.86
49451;BME280;35336;48.400;10.886;2023-03-20T01:15:32;96406.97;;;8.69;84.03
49451;BME280;35336;48.400;10.886;2023-03-20T01:15:49;96424.56;;;8.85;84.20
49451;BME280;35336;48.400;10.886;2023-03-20T01:16:05;96447.03;;;8.97;83.84
49451;BME280;35336;48.400;10.886;2023-03-20T01:16:24;96431.56;;;8.86;84.30
49451;BME280;35336;48.400;10.886;2023-03-20T01:16:39;96448.88;;;8.97;84.32
49451;BME280;35336;48.400;10.886;2023-03-20T01:16:55;96451.53;;;8.97;84.25
49451;BME280;35336;48.400;10.886;2023-03-20T01:17:17;96430.72;;;8.85;84.31
49451;BME280;35336;48.400;10.886;2023-03-20T01:17:32;96444.75;;;8.94;83.93
49451;BME280;35336;48.400;10.886;2023-03-20T01:17:48;96426.13;;;8.79;84.20
49451;BME280;35336;48.400;10.886;2023-03-20T01:18:03;96452.91;;;8.93;84.26
49451;BME280;35336;48.400;10.886;2023-03-20T01:18:21;96442.09;;;8.94;84.27
49451;BME280;35336;48.400;10.886;2023-03-20T01:18:36;96445.75;;;8.93;84.43
49451;BME280;35336;48.400;10.886;2023-03-20T01:18:52;96438.13;;;8.90;84.06
49451;BME280;35336;48.400;10.886;2023-03-20T01:19:13;96443.56;;;8.97;84.13
49451;BME280;35336;48.400;10.886;2023-03-20T01:19:29;96448.03;;;8.96;84.41
49451;BME280;35336;48.400;10.886;2023-03-20T01:19:44;96452.28;;;8.90;84.47
49451;BME280;35336;48.400;10.886;2023-03-20T01:20:00;96441.34;;;8.85;84.35
49451;BME280;35336;48.400;10.886;2023-03-20T01:20:16;96447.41;;;8.94;84.43
49451;BME280;35336;48.400;10.886;2023-03-20T01:20:32;96448.22;;;8.95;84.65
49451;BME280;35336;48.400;10.886;2023-03-20T01:20:48;96431.75;;;8.84;84.43
49451;BME280;35336;48.400;10.886;2023-03-20T01:21:04;96439.78;;;8.91;84.21
49451;BME280;35336;48.400;10.886;2023-03-20T01:21:20;96451.53;;;8.97;84.24
49451;BME280;35336;48.400;10.886;2023-03-20T01:21:35;96442.56;;;8.98;84.42
49451;BME280;35336;48.400;10.886;2023-03-20T01:21:50;96426.22;;;8.86;84.01
49451;BME280;35336;48.400;10.886;2023-03-20T01:22:06;96428.03;;;8.85;84.24
49451;BME280;35336;48.400;10.886;2023-03-20T01:22:21;96443.56;;;8.97;83.98
49451;BME280;35336;48.400;10.886;2023-03-20T01:22:36;96449.69;;;8.97;83.84
49451;BME280;35336;48.400;10.886;2023-03-20T01:22:52;96444.75;;;8.94;84.21
49451;BME280;35336;48.400;10.886;2023-03-20T01:23:08;96431.34;;;8.87;83.96
49451;BME280;35336;48.400;10.886;2023-03-20T01:23:23;96446.22;;;8.97;83.83
49451;BME280;35336;48.400;10.886;2023-03-20T01:23:39;96447.22;;;8.96;83.84
49451;BME280;35336;48.400;10.886;2023-03-20T01:23:54;96443.91;;;8.94;84.16
49451;BME280;35336;48.400;10.886;2023-03-20T01:24:09;96447.41;;;8.94;83.99
49451;BME280;35336;48.400;10.886;2023-03-20T01:24:25;96433.38;;;8.85;84.09
49451;BME280;35336;48.400;10.886;2023-03-20T01:24:40;96443.09;;;8.93;84.24
49451;BME280;35336;48.400;10.886;2023-03-20T01:24:55;96435.22;;;8.85;83.88
49451;BME280;35336;48.400;10.886;2023-03-20T01:25:11;96450.88;;;8.95;83.86
49451;BME280;35336;48.400;10.886;2023-03-20T01:25:26;96441.56;;;8.99;83.93
49451;BME280;35336;48.400;10.886;2023-03-20T01:25:41;96449.78;;;9.04;83.51
49451;BME280;35336;48.400;10.886;2023-03-20T01:25:57;96425.13;;;8.95;83.44
49451;BME280;35336;48.400;10.886;2023-03-20T01:26:42;96442.72;;;8.96;83.84
49451;BME280;35336;48.400;10.886;2023-03-20T01:26:58;96444.22;;;8.99;83.84
49451;BME280;35336;48.400;10.886;2023-03-20T01:27:16;96432.66;;;8.92;83.70
49451;BME280;35336;48.400;10.886;2023-03-20T01:27:32;96447.88;;;8.98;83.83
49451;BME280;35336;48.400;10.886;2023-03-20T01:27:52;96435.47;;;8.90;83.80
49451;BME280;35336;48.400;10.886;2023-03-20T01:28:19;96431.91;;;8.83;84.15
49451;BME280;35336;48.400;10.886;2023-03-20T01:28:35;96443.09;;;8.93;84.02
49451;BME280;35336;48.400;10.886;2023-03-20T01:28:51;96435.03;;;8.86;83.96
49451;BME280;35336;48.400;10.886;2023-03-20T01:29:21;96438.34;;;8.88;83.97
49451;BME280;35336;48.400;10.886;2023-03-20T01:29:36;96447.97;;;8.89;84.13
49451;BME280;35336;48.400;10.886;2023-03-20T01:29:52;96448.31;;;8.86;84.45
49451;BME280;35336;48.400;10.886;2023-03-20T01:30:17;96450.34;;;8.84;84.38
49451;BME280;35336;48.400;10.886;2023-03-20T01:30:33;96440.06;;;8.81;84.20
49451;BME280;35336;48.400;10.886;2023-03-20T01:30:49;96435.50;;;8.75;84.37
49451;BME280;35336;48.400;10.886;2023-03-20T01:31:04;96437.13;;;8.76;84.21
49451;BME280;35336;48.400;10.886;2023-03-20T01:31:19;96426.22;;;8.71;84.44
49451;BME280;35336;48.400;10.886;2023-03-20T01:31:35;96448.84;;;8.82;84.59
49451;BME280;35336;48.400;10.886;2023-03-20T01:31:51;96449.06;;;8.80;84.66
49451;BME280;35336;48.400;10.886;2023-03-20T01:32:15;96432.56;;;8.70;84.54
49451;BME280;35336;48.400;10.886;2023-03-20T01:32:31;96449.44;;;8.77;84.48
49451;BME280;35336;48.400;10.886;2023-03-20T01:32:46;96425.84;;;8.74;84.54
49451;BME280;35336;48.400;10.886;2023-03-20T01:33:11;96411.19;;;8.63;84.66
49451;BME280;35336;48.400;10.886;2023-03-20T01:33:27;96445.84;;;8.85;84.64
49451;BME280;35336;48.400;10.886;2023-03-20T01:33:43;96447.03;;;8.82;84.57
49451;BME280;35336;48.400;10.886;2023-03-20T01:33:58;96444.13;;;8.77;84.50
49451;BME280;35336;48.400;10.886;2023-03-20T01:34:14;96437.13;;;8.76;84.75
49451;BME280;35336;48.400;10.886;2023-03-20T01:34:29;96454.38;;;8.80;84.55